Time;durP1;ratioP1;P1;durP2;ratioP2;P2;SDS_P1;SDS_P2;PMS_P1;PMS_P2;Temp;Humidity;BMP_temperature;BMP_pressure;BME280_temperature;BME280_humidity;BME280_pressure;Samples;Min_cycle;Max_cycle;Signal;HPM_P1;HPM_P2
2022/06/26 00:00:11;;;;;;;;;;;14.00;99.90;;;;;;5054733;28;19958;-78
2022/06/26 00:02:37;;;;;;;;;;;14.00;99.90;;;;;;5073315;28;19904;-76
2022/06/26 00:05:03;;;;;;;;;;;14.00;99.90;;;;;;5072847;28;19912;-76
2022/06/26 00:07:28;;;;;;;;;;;14.00;99.90;;;;;;5072382;28;19904;-76
2022/06/26 00:09:54;;;;;;;;;;;14.00;99.90;;;;;;5054963;28;19904;-76
2022/06/26 00:12:19;;;;;;;;;;;14.00;99.90;;;;;;5072446;28;19916;-76
2022/06/26 00:14:45;;;;;;;;;;;14.00;99.90;;;;;;5072820;28;19904;-76
2022/06/26 00:17:11;;;;;;;;;;;14.00;99.90;;;;;;5072173;28;19930;-75
2022/06/26 00:19:36;;;;;;;;;;;14.00;99.90;;;;;;5073008;28;19905;-76
2022/06/26 00:22:05;;;;;;;;;;;14.00;99.90;;;;;;5073108;28;19911;-76
2022/06/26 00:24:32;;;;;;;;;;;14.00;99.90;;;;;;5072493;28;20347;-76
2022/06/26 00:26:57;;;;;;;;;;;14.00;99.90;;;;;;5072822;28;20385;-76
2022/06/26 00:29:23;;;;;;;;;;;14.00;99.90;;;;;;5072256;28;19904;-75
2022/06/26 00:31:48;;;;;;;;;;;14.00;99.90;;;;;;5072672;28;20002;-75
2022/06/26 00:34:14;;;;;;;;;;;14.00;99.90;;;;;;5071915;28;19917;-75
2022/06/26 00:36:39;;;;;;;;;;;13.90;99.90;;;;;;5072348;28;19908;-76
2022/06/26 00:39:05;;;;;;;;;;;14.00;99.90;;;;;;5072730;28;19904;-76
2022/06/26 00:41:30;;;;;;;;;;;13.90;99.90;;;;;;5072107;28;19904;-76
2022/06/26 00:43:56;;;;;;;;;;;13.90;99.90;;;;;;5072718;28;20362;-76
2022/06/26 00:46:24;;;;;;;;;;;13.90;99.90;;;;;;5072158;28;20006;-76
2022/06/26 00:48:50;;;;;;;;;;;13.80;99.90;;;;;;5072757;28;19916;-76
2022/06/26 00:51:16;;;;;;;;;;;13.90;99.90;;;;;;5073243;28;19995;-76
2022/06/26 00:53:42;;;;;;;;;;;13.80;99.90;;;;;;5076481;28;19946;-76
2022/06/26 00:56:08;;;;;;;;;;;13.80;99.90;;;;;;5076375;28;19944;-75
2022/06/26 00:58:34;;;;;;;;;;;13.80;99.90;;;;;;5076738;28;19964;-76
2022/06/26 01:01:00;;;;;;;;;;;13.80;99.90;;;;;;5058708;28;19966;-76
2022/06/26 01:03:25;;;;;;;;;;;13.80;99.90;;;;;;5075653;28;19961;-76
2022/06/26 01:05:51;;;;;;;;;;;13.80;99.90;;;;;;5076240;28;19911;-76
2022/06/26 01:08:17;;;;;;;;;;;13.70;99.90;;;;;;5075931;28;20347;-75
2022/06/26 01:10:44;;;;;;;;;;;13.70;99.90;;;;;;5076551;28;20017;-76
2022/06/26 01:13:10;;;;;;;;;;;13.70;99.90;;;;;;5076045;28;19951;-75
2022/06/26 01:15:35;;;;;;;;;;;13.70;99.90;;;;;;5076773;28;19958;-76
2022/06/26 01:18:01;;;;;;;;;;;13.60;99.90;;;;;;5076663;28;19916;-76
2022/06/26 01:20:27;;;;;;;;;;;13.60;99.90;;;;;;5075587;28;19904;-76
2022/06/26 01:22:56;;;;;;;;;;;13.60;99.90;;;;;;5076123;28;20286;-76
2022/06/26 01:25:22;;;;;;;;;;;13.50;99.90;;;;;;5075697;28;19904;-76
2022/06/26 01:27:47;;;;;;;;;;;13.50;99.90;;;;;;5076189;28;19999;-76
2022/06/26 01:30:13;;;;;;;;;;;13.50;99.90;;;;;;5075519;28;19904;-76
2022/06/26 01:32:38;;;;;;;;;;;13.50;99.90;;;;;;5076106;28;20311;-76
2022/06/26 01:35:04;;;;;;;;;;;13.50;99.90;;;;;;5076236;28;19921;-76
2022/06/26 01:37:30;;;;;;;;;;;13.50;99.90;;;;;;5075219;28;19952;-76
2022/06/26 01:39:55;;;;;;;;;;;13.50;99.90;;;;;;5075885;28;19904;-76
2022/06/26 01:42:21;;;;;;;;;;;13.40;99.90;;;;;;5075116;28;19911;-76
2022/06/26 01:44:46;;;;;;;;;;;13.40;99.90;;;;;;5075790;28;20350;-77
2022/06/26 01:47:12;;;;;;;;;;;13.40;99.90;;;;;;5075316;28;19905;-76
2022/06/26 01:49:38;;;;;;;;;;;13.40;99.90;;;;;;5075417;28;20374;-77
2022/06/26 01:52:03;;;;;;;;;;;13.40;99.90;;;;;;5075380;28;19910;-77
2022/06/26 01:54:29;;;;;;;;;;;13.40;99.90;;;;;;5074770;28;19904;-78
2022/06/26 01:56:54;;;;;;;;;;;13.40;99.90;;;;;;5075492;28;19911;-76
2022/06/26 01:59:20;;;;;;;;;;;13.40;99.90;;;;;;5074732;28;19954;-75
2022/06/26 02:01:46;;;;;;;;;;;13.40;99.90;;;;;;5075831;28;20248;-76
2022/06/26 02:04:16;;;;;;;;;;;13.40;99.90;;;;;;5074105;28;19912;-76
2022/06/26 02:06:42;;;;;;;;;;;13.40;99.90;;;;;;5075052;28;20271;-77
2022/06/26 02:13:35;;;;;;;;;;;13.40;99.90;;;;;;5075391;28;19904;-76
2022/06/26 02:14:37;;;;;;;;;;;13.30;99.90;;;;;;5074959;28;19928;-77
2022/06/26 02:17:02;;;;;;;;;;;13.40;99.90;;;;;;5075044;28;19904;-77
2022/06/26 02:19:28;;;;;;;;;;;13.40;99.90;;;;;;5074700;28;19904;-77
2022/06/26 02:21:53;;;;;;;;;;;13.40;99.90;;;;;;5074724;28;19966;-77
2022/06/26 02:24:19;;;;;;;;;;;13.40;99.90;;;;;;5074402;28;19916;-77
2022/06/26 02:26:45;;;;;;;;;;;13.40;99.90;;;;;;5075356;28;19935;-77
2022/06/26 02:29:10;;;;;;;;;;;13.40;99.90;;;;;;5074730;28;20412;-77
2022/06/26 02:31:36;;;;;;;;;;;13.40;99.90;;;;;;5074238;28;19904;-77
2022/06/26 02:34:01;;;;;;;;;;;13.30;99.90;;;;;;5074860;28;19920;-75
2022/06/26 02:36:27;;;;;;;;;;;13.40;99.90;;;;;;5074317;28;19905;-76
2022/06/26 02:38:52;;;;;;;;;;;13.40;99.90;;;;;;5074696;28;19928;-75
2022/06/26 02:41:18;;;;;;;;;;;13.40;99.90;;;;;;5074131;28;19908;-75
2022/06/26 02:43:43;;;;;;;;;;;13.40;99.90;;;;;;5074632;28;19919;-76
2022/06/26 02:46:10;;;;;;;;;;;13.40;99.90;;;;;;5074514;28;19905;-76
2022/06/26 02:48:35;;;;;;;;;;;13.40;99.90;;;;;;5073678;28;20598;-75
2022/06/26 02:51:01;;;;;;;;;;;13.40;99.90;;;;;;5074700;28;19994;-77
2022/06/26 02:53:26;;;;;;;;;;;13.40;99.90;;;;;;5073593;28;19904;-76
2022/06/26 02:55:52;;;;;;;;;;;13.40;99.90;;;;;;5074319;28;19951;-78
2022/06/26 02:58:17;;;;;;;;;;;13.30;99.90;;;;;;5055896;28;19912;-78
2022/06/26 03:00:43;;;;;;;;;;;13.30;99.90;;;;;;5056618;28;20014;-76
2022/06/26 03:03:09;;;;;;;;;;;13.40;99.90;;;;;;5073748;28;19905;-76
2022/06/26 03:05:34;;;;;;;;;;;13.30;99.90;;;;;;5073731;28;20192;-76
2022/06/26 03:08:00;;;;;;;;;;;13.30;99.90;;;;;;5074092;28;19909;-78
2022/06/26 03:10:26;;;;;;;;;;;13.30;99.90;;;;;;5073716;28;20235;-80
2022/06/26 03:12:51;;;;;;;;;;;13.30;99.90;;;;;;5073962;28;19905;-77
2022/06/26 03:15:18;;;;;;;;;;;13.30;99.90;;;;;;5073138;28;19911;-79
2022/06/26 03:17:44;;;;;;;;;;;13.20;99.90;;;;;;5074031;28;19904;-77
2022/06/26 03:20:10;;;;;;;;;;;13.20;99.90;;;;;;5074099;28;20240;-76
2022/06/26 03:22:36;;;;;;;;;;;13.20;99.90;;;;;;5073084;28;19908;-76
2022/06/26 03:25:02;;;;;;;;;;;13.20;99.90;;;;;;5073843;28;20312;-76
2022/06/26 03:27:27;;;;;;;;;;;13.20;99.90;;;;;;5073326;28;19911;-76
2022/06/26 03:29:53;;;;;;;;;;;13.20;99.90;;;;;;5073707;28;20337;-76
2022/06/26 03:32:19;;;;;;;;;;;13.20;99.90;;;;;;5073377;28;19904;-75
2022/06/26 03:34:44;;;;;;;;;;;13.20;99.90;;;;;;5073311;28;19917;-75
2022/06/26 03:37:10;;;;;;;;;;;13.10;99.90;;;;;;5073705;28;20370;-76
2022/06/26 03:39:35;;;;;;;;;;;13.10;99.90;;;;;;5072960;28;20355;-75
2022/06/26 03:42:01;;;;;;;;;;;13.10;99.90;;;;;;5073389;28;19962;-75
2022/06/26 03:44:27;;;;;;;;;;;13.10;99.90;;;;;;5072962;28;19913;-75
2022/06/26 03:46:53;;;;;;;;;;;13.10;99.90;;;;;;5073563;28;19912;-75
2022/06/26 03:49:19;;;;;;;;;;;13.10;99.90;;;;;;5073111;28;20351;-76
2022/06/26 03:51:44;;;;;;;;;;;13.10;99.90;;;;;;5073330;28;19911;-75
2022/06/26 03:54:10;;;;;;;;;;;13.10;99.90;;;;;;5073220;28;19908;-75
2022/06/26 03:56:37;;;;;;;;;;;13.00;99.90;;;;;;5073118;28;19911;-79
2022/06/26 03:59:02;;;;;;;;;;;13.00;99.90;;;;;;5073293;28;20309;-78
2022/06/26 04:01:28;;;;;;;;;;;12.90;99.90;;;;;;5072611;28;19904;-76
2022/06/26 04:03:53;;;;;;;;;;;12.90;99.90;;;;;;5072893;28;20358;-76
2022/06/26 04:06:19;;;;;;;;;;;12.90;99.90;;;;;;5072941;28;19905;-76
2022/06/26 04:08:45;;;;;;;;;;;12.90;99.90;;;;;;5072653;28;19949;-75
2022/06/26 04:11:10;;;;;;;;;;;12.90;99.90;;;;;;5073211;28;19905;-76
2022/06/26 04:13:36;;;;;;;;;;;12.90;99.90;;;;;;5072205;28;19904;-76
2022/06/26 04:16:01;;;;;;;;;;;12.90;99.90;;;;;;5073074;28;19995;-76
2022/06/26 04:18:27;;;;;;;;;;;12.90;99.90;;;;;;5072392;28;19904;-76
2022/06/26 04:20:52;;;;;;;;;;;12.80;99.90;;;;;;5055069;28;19950;-76
2022/06/26 04:23:18;;;;;;;;;;;12.90;99.90;;;;;;5072840;28;19926;-76
2022/06/26 04:25:44;;;;;;;;;;;12.90;99.90;;;;;;5072144;28;19987;-76
2022/06/26 04:28:09;;;;;;;;;;;12.90;99.90;;;;;;5073004;28;20315;-76
2022/06/26 04:30:35;;;;;;;;;;;12.90;99.90;;;;;;5037569;28;19947;-75
2022/06/26 04:33:00;;;;;;;;;;;12.90;99.90;;;;;;5072626;28;19954;-76
2022/06/26 04:35:26;;;;;;;;;;;12.90;99.90;;;;;;5072375;28;19990;-76
2022/06/26 04:37:52;;;;;;;;;;;12.90;99.90;;;;;;5072583;28;19904;-76
2022/06/26 04:40:17;;;;;;;;;;;12.90;99.90;;;;;;5072918;28;19988;-76
2022/06/26 04:42:43;;;;;;;;;;;12.90;99.90;;;;;;5072271;28;20645;-75
2022/06/26 04:45:09;;;;;;;;;;;12.90;99.90;;;;;;5072765;28;19920;-75
2022/06/26 04:47:35;;;;;;;;;;;12.90;99.90;;;;;;5072167;28;20367;-75
2022/06/26 04:50:00;;;;;;;;;;;12.90;99.90;;;;;;5072647;28;19961;-75
2022/06/26 04:52:26;;;;;;;;;;;12.90;99.90;;;;;;5072490;28;20267;-75
2022/06/26 04:54:52;;;;;;;;;;;12.90;99.90;;;;;;5072354;28;19912;-75
2022/06/26 04:57:17;;;;;;;;;;;12.90;99.90;;;;;;5072651;28;20339;-75
2022/06/26 04:59:46;;;;;;;;;;;12.90;99.90;;;;;;5072154;28;19912;-75
2022/06/26 05:02:11;;;;;;;;;;;12.80;99.90;;;;;;5072221;28;19905;-75
2022/06/26 05:04:37;;;;;;;;;;;12.90;99.90;;;;;;5071973;28;19912;-75
2022/06/26 05:07:03;;;;;;;;;;;12.90;99.90;;;;;;5072568;28;19905;-75
2022/06/26 05:09:29;;;;;;;;;;;12.80;99.90;;;;;;5071958;28;19946;-76
2022/06/26 05:11:55;;;;;;;;;;;12.80;99.90;;;;;;5072398;28;19951;-75
2022/06/26 05:14:20;;;;;;;;;;;12.90;99.90;;;;;;5072594;28;19904;-77
2022/06/26 05:16:46;;;;;;;;;;;12.80;99.90;;;;;;5071891;28;20369;-76
2022/06/26 05:19:12;;;;;;;;;;;12.80;99.90;;;;;;5072532;28;19904;-75
2022/06/26 05:21:37;;;;;;;;;;;12.80;99.90;;;;;;5071894;28;19931;-75
2022/06/26 05:24:03;;;;;;;;;;;12.80;99.90;;;;;;5072055;28;19920;-76
2022/06/26 05:26:29;;;;;;;;;;;12.80;99.90;;;;;;5071521;28;19910;-77
2022/06/26 05:28:54;;;;;;;;;;;12.80;99.90;;;;;;5072371;28;19904;-76
2022/06/26 05:31:21;;;;;;;;;;;12.80;99.90;;;;;;5071972;28;20421;-76
2022/06/26 05:33:47;;;;;;;;;;;12.80;99.90;;;;;;5071494;28;20328;-76
2022/06/26 05:36:13;;;;;;;;;;;12.80;99.90;;;;;;5072692;28;20366;-76
2022/06/26 05:38:39;;;;;;;;;;;12.80;99.90;;;;;;5074453;28;19958;-76
2022/06/26 05:41:05;;;;;;;;;;;12.90;99.90;;;;;;5075909;28;19912;-79
2022/06/26 05:43:31;;;;;;;;;;;12.80;99.90;;;;;;5075250;28;20282;-78
2022/06/26 05:45:57;;;;;;;;;;;12.80;99.90;;;;;;5075612;28;19908;-75
2022/06/26 05:48:24;;;;;;;;;;;12.80;99.90;;;;;;5075868;28;19904;-76
2022/06/26 05:50:50;;;;;;;;;;;12.80;99.90;;;;;;5075200;28;20387;-76
2022/06/26 05:53:15;;;;;;;;;;;12.80;99.90;;;;;;5075463;28;19904;-75
2022/06/26 05:55:41;;;;;;;;;;;12.80;99.90;;;;;;5075344;28;20346;-75
2022/06/26 05:58:06;;;;;;;;;;;12.80;99.90;;;;;;5075700;28;19905;-75
2022/06/26 06:00:33;;;;;;;;;;;12.80;99.90;;;;;;5075121;28;19930;-75
2022/06/26 06:02:58;;;;;;;;;;;12.80;99.90;;;;;;5075057;28;19904;-76
2022/06/26 06:05:25;;;;;;;;;;;12.70;99.90;;;;;;5075464;28;19911;-75
2022/06/26 06:07:52;;;;;;;;;;;12.70;99.90;;;;;;5074937;28;19931;-76
2022/06/26 06:10:21;;;;;;;;;;;12.70;99.90;;;;;;5075593;28;19905;-76
2022/06/26 06:12:47;;;;;;;;;;;12.70;99.90;;;;;;5074875;28;20369;-75
2022/06/26 06:15:12;;;;;;;;;;;12.70;99.90;;;;;;5075306;28;19958;-75
2022/06/26 06:17:41;;;;;;;;;;;12.80;99.90;;;;;;5074712;28;19904;-75
2022/06/26 06:20:07;;;;;;;;;;;12.90;99.90;;;;;;5074958;28;20282;-75
2022/06/26 06:22:32;;;;;;;;;;;12.90;99.90;;;;;;5074320;28;19904;-74
2022/06/26 06:24:58;;;;;;;;;;;12.90;99.90;;;;;;5075017;28;20284;-75
2022/06/26 06:27:23;;;;;;;;;;;13.00;99.90;;;;;;5075010;28;19912;-74
2022/06/26 06:29:49;;;;;;;;;;;13.00;99.90;;;;;;5074084;28;19983;-75
2022/06/26 06:32:14;;;;;;;;;;;13.10;99.90;;;;;;5074935;28;20381;-75
2022/06/26 06:34:40;;;;;;;;;;;13.10;99.90;;;;;;5073973;28;20006;-75
2022/06/26 06:37:06;;;;;;;;;;;13.10;99.90;;;;;;5074953;28;19908;-74
2022/06/26 06:39:32;;;;;;;;;;;13.10;99.90;;;;;;5074155;28;19905;-74
2022/06/26 06:41:57;;;;;;;;;;;13.20;99.90;;;;;;5056890;28;19904;-75
2022/06/26 06:44:23;;;;;;;;;;;13.30;99.90;;;;;;5074380;28;19919;-74
2022/06/26 06:46:48;;;;;;;;;;;13.30;99.90;;;;;;5074117;28;19958;-74
2022/06/26 06:49:14;;;;;;;;;;;13.40;99.90;;;;;;5073979;28;19909;-74
2022/06/26 06:51:40;;;;;;;;;;;13.50;99.90;;;;;;5074360;28;19915;-74
2022/06/26 06:54:06;;;;;;;;;;;13.50;99.90;;;;;;5074763;28;19935;-74
2022/06/26 06:56:31;;;;;;;;;;;13.50;99.90;;;;;;5073904;28;20282;-74
2022/06/26 06:58:57;;;;;;;;;;;13.50;99.90;;;;;;5074365;28;19905;-75
2022/06/26 07:01:23;;;;;;;;;;;13.60;99.90;;;;;;5074403;28;20273;-74
2022/06/26 07:03:49;;;;;;;;;;;13.60;99.90;;;;;;5073764;28;19912;-74
2022/06/26 07:06:14;;;;;;;;;;;13.60;99.90;;;;;;5074358;28;19904;-74
2022/06/26 07:08:40;;;;;;;;;;;13.60;99.90;;;;;;5074068;28;19909;-74
2022/06/26 07:11:05;;;;;;;;;;;13.60;99.90;;;;;;5074316;28;19904;-74
2022/06/26 07:13:31;;;;;;;;;;;13.70;99.90;;;;;;5073833;28;20305;-74
2022/06/26 07:15:56;;;;;;;;;;;13.70;99.90;;;;;;5074166;28;19904;-75
2022/06/26 07:18:24;;;;;;;;;;;13.70;99.90;;;;;;5074509;28;19905;-75
2022/06/26 07:20:49;;;;;;;;;;;13.80;99.90;;;;;;5073525;28;19908;-74
2022/06/26 07:23:15;;;;;;;;;;;13.80;99.90;;;;;;5073863;28;19958;-75
2022/06/26 07:25:41;;;;;;;;;;;13.90;99.90;;;;;;5073337;28;19905;-74
2022/06/26 07:28:08;;;;;;;;;;;13.90;99.90;;;;;;5073749;28;20321;-75
2022/06/26 07:30:34;;;;;;;;;;;14.00;99.90;;;;;;5073225;28;19905;-74
2022/06/26 07:34:12;;;;;;;;;;;14.10;99.90;;;;;;5074078;28;19904;-75
2022/06/26 07:35:52;;;;;;;;;;;14.10;99.90;;;;;;5072487;28;19931;-74
2022/06/26 07:38:17;;;;;;;;;;;14.10;99.90;;;;;;5073699;28;19905;-75
2022/06/26 07:40:43;;;;;;;;;;;14.10;99.90;;;;;;5072918;28;19908;-74
2022/06/26 07:43:08;;;;;;;;;;;14.20;99.90;;;;;;5073326;28;19904;-74
2022/06/26 07:45:34;;;;;;;;;;;14.20;99.90;;;;;;5073220;28;20252;-74
2022/06/26 07:48:00;;;;;;;;;;;14.20;99.90;;;;;;5073553;28;19908;-74
2022/06/26 07:50:25;;;;;;;;;;;14.20;99.90;;;;;;5073481;28;19911;-74
2022/06/26 07:52:51;;;;;;;;;;;14.30;99.90;;;;;;5073007;28;19904;-74
2022/06/26 07:55:17;;;;;;;;;;;14.20;99.90;;;;;;5073335;28;19946;-75
2022/06/26 07:57:43;;;;;;;;;;;14.20;99.90;;;;;;5072607;28;19957;-76
2022/06/26 08:00:09;;;;;;;;;;;14.20;99.90;;;;;;5073106;28;19905;-75
2022/06/26 08:02:35;;;;;;;;;;;14.20;99.90;;;;;;5072379;28;19943;-73
2022/06/26 08:05:00;;;;;;;;;;;14.20;99.90;;;;;;5073297;28;19952;-75
2022/06/26 08:07:26;;;;;;;;;;;14.20;99.90;;;;;;5055395;28;19954;-75
2022/06/26 08:09:52;;;;;;;;;;;14.20;99.90;;;;;;5072915;28;19908;-75
2022/06/26 08:12:17;;;;;;;;;;;14.20;99.90;;;;;;5072907;28;19904;-76
2022/06/26 08:14:43;;;;;;;;;;;14.30;99.90;;;;;;5072276;28;19923;-75
2022/06/26 08:17:08;;;;;;;;;;;14.30;99.90;;;;;;5073152;28;20347;-75
2022/06/26 08:19:34;;;;;;;;;;;14.40;99.90;;;;;;5073012;28;19998;-76
2022/06/26 08:22:02;;;;;;;;;;;14.50;99.90;;;;;;5072217;28;19908;-75
2022/06/26 08:24:29;;;;;;;;;;;14.60;99.90;;;;;;5072853;28;19919;-75
2022/06/26 08:26:54;;;;;;;;;;;14.70;99.90;;;;;;5072246;28;20376;-75
2022/06/26 08:29:20;;;;;;;;;;;14.90;99.90;;;;;;5072656;28;19954;-75
2022/06/26 08:31:46;;;;;;;;;;;15.20;99.90;;;;;;5071849;28;19943;-77
2022/06/26 08:34:11;;;;;;;;;;;15.40;99.90;;;;;;5073164;28;19920;-76
2022/06/26 08:36:38;;;;;;;;;;;15.60;99.90;;;;;;5072299;28;19904;-76
2022/06/26 08:39:05;;;;;;;;;;;15.80;99.90;;;;;;5072451;28;20232;-76
2022/06/26 08:41:33;;;;;;;;;;;15.90;99.90;;;;;;5073061;28;19908;-76
2022/06/26 08:43:59;;;;;;;;;;;15.80;99.90;;;;;;5072084;28;19923;-76
2022/06/26 08:46:26;;;;;;;;;;;15.70;99.90;;;;;;5054743;28;19904;-76
2022/06/26 08:48:53;;;;;;;;;;;15.70;99.90;;;;;;5072206;28;19904;-76
2022/06/26 08:51:19;;;;;;;;;;;15.80;99.90;;;;;;5072405;28;20362;-76
2022/06/26 08:53:45;;;;;;;;;;;15.70;99.90;;;;;;5072102;28;19959;-76
2022/06/26 08:56:10;;;;;;;;;;;15.80;99.90;;;;;;5072718;28;19908;-76
2022/06/26 08:58:36;;;;;;;;;;;15.80;99.90;;;;;;5072184;28;19912;-76
2022/06/26 09:01:03;;;;;;;;;;;15.70;99.90;;;;;;5054023;28;20002;-76
2022/06/26 09:03:28;;;;;;;;;;;15.70;99.90;;;;;;5072360;28;19965;-76
2022/06/26 09:05:54;;;;;;;;;;;15.70;99.90;;;;;;5054028;28;19904;-76
2022/06/26 09:08:20;;;;;;;;;;;15.60;99.90;;;;;;5072497;28;19908;-76
2022/06/26 09:10:46;;;;;;;;;;;15.70;99.90;;;;;;5071871;28;20126;-76
2022/06/26 09:13:13;;;;;;;;;;;15.70;99.90;;;;;;5074919;28;19904;-76
2022/06/26 09:15:42;;;;;;;;;;;15.70;99.90;;;;;;5076281;28;19905;-76
2022/06/26 09:18:08;;;;;;;;;;;15.70;99.90;;;;;;5076185;28;19905;-76
2022/06/26 09:20:35;;;;;;;;;;;15.60;99.90;;;;;;5076267;28;19911;-76
2022/06/26 09:23:01;;;;;;;;;;;15.70;99.90;;;;;;5057630;28;20062;-76
2022/06/26 09:25:33;;;;;;;;;;;15.70;99.90;;;;;;5076118;28;19958;-76
2022/06/26 09:28:06;;;;;;;;;;;15.80;99.90;;;;;;5075484;28;20390;-76
2022/06/26 09:30:31;;;;;;;;;;;15.90;99.90;;;;;;5075926;28;19912;-76
2022/06/26 09:32:57;;;;;;;;;;;16.00;99.90;;;;;;5075078;28;19905;-76
2022/06/26 09:35:24;;;;;;;;;;;16.20;99.90;;;;;;5075801;28;19916;-76
2022/06/26 09:37:49;;;;;;;;;;;16.20;99.90;;;;;;5075229;28;19911;-76
2022/06/26 09:40:18;;;;;;;;;;;16.30;99.90;;;;;;5075663;28;19905;-77
2022/06/26 09:42:43;;;;;;;;;;;16.40;99.90;;;;;;5075272;28;20317;-76
2022/06/26 09:45:10;;;;;;;;;;;16.60;99.90;;;;;;5075600;28;19956;-76
2022/06/26 09:47:35;;;;;;;;;;;16.60;99.90;;;;;;5075360;28;20248;-76
2022/06/26 09:50:04;;;;;;;;;;;16.70;99.90;;;;;;5075182;28;19965;-76
2022/06/26 09:52:30;;;;;;;;;;;16.80;99.90;;;;;;5076013;28;19904;-76
2022/06/26 09:54:57;;;;;;;;;;;16.80;99.90;;;;;;5074827;28;19904;-76
2022/06/26 09:57:23;;;;;;;;;;;16.90;99.90;;;;;;5075328;28;20349;-77
2022/06/26 09:59:48;;;;;;;;;;;16.90;99.90;;;;;;5074960;28;19905;-76
2022/06/26 10:07:49;;;;;;;;;;;17.20;99.90;;;;;;5074703;28;20270;-77
2022/06/26 10:10:16;;;;;;;;;;;17.10;99.90;;;;;;5075305;28;19904;-76
2022/06/26 10:12:42;;;;;;;;;;;16.90;99.90;;;;;;5075533;28;19904;-77
2022/06/26 10:15:09;;;;;;;;;;;16.80;99.90;;;;;;5075322;28;19904;-77
2022/06/26 10:17:35;;;;;;;;;;;16.80;99.90;;;;;;5075304;28;20052;-77
2022/06/26 10:20:04;;;;;;;;;;;16.70;99.90;;;;;;5074650;28;19908;-77
2022/06/26 10:22:39;;;;;;;;;;;16.70;99.90;;;;;;5074910;28;19904;-76
2022/06/26 10:25:06;;;;;;;;;;;16.70;99.90;;;;;;5073534;28;19959;-77
2022/06/26 10:27:32;;;;;;;;;;;16.70;99.90;;;;;;5075082;28;19958;-77
2022/06/26 10:30:13;;;;;;;;;;;16.80;99.90;;;;;;5074543;28;20033;-77
2022/06/26 10:32:39;;;;;;;;;;;16.90;99.90;;;;;;5074992;28;19904;-77
2022/06/26 10:35:05;;;;;;;;;;;17.10;99.90;;;;;;5074270;28;20420;-76
2022/06/26 10:37:47;;;;;;;;;;;17.20;99.90;;;;;;5074894;28;19908;-77
2022/06/26 10:42:52;;;;;;;;;;;17.40;99.90;;;;;;5074984;28;19905;-77
2022/06/26 10:43:00;;;;;;;;;;;17.60;99.90;;;;;;5073760;28;20457;-77
2022/06/26 10:45:32;;;;;;;;;;;17.60;99.90;;;;;;5074870;28;19987;-76
2022/06/26 10:48:00;;;;;;;;;;;17.50;99.90;;;;;;5074062;28;19950;-77
2022/06/26 10:50:33;;;;;;;;;;;17.50;99.90;;;;;;5074614;28;20309;-77
2022/06/26 10:53:17;;;;;;;;;;;17.50;99.90;;;;;;5074070;28;19969;-76
2022/06/26 10:55:47;;;;;;;;;;;17.70;99.90;;;;;;5074357;28;19908;-75
2022/06/26 10:58:25;;;;;;;;;;;17.90;99.90;;;;;;5074293;28;19904;-76
2022/06/26 11:00:51;;;;;;;;;;;18.10;99.90;;;;;;5073452;28;20371;-75
2022/06/26 11:03:18;;;;;;;;;;;18.40;99.90;;;;;;5074205;28;20004;-76
2022/06/26 11:06:09;;;;;;;;;;;18.50;99.90;;;;;;5074404;28;19911;-75
2022/06/26 11:08:36;;;;;;;;;;;18.60;99.90;;;;;;5069858;28;19905;-75
2022/06/26 11:11:07;;;;;;;;;;;18.80;99.90;;;;;;5055686;28;19991;-75
2022/06/26 11:13:34;;;;;;;;;;;18.80;99.90;;;;;;5074017;28;20266;-76
2022/06/26 11:16:00;;;;;;;;;;;18.70;99.90;;;;;;5073399;28;19912;-75
2022/06/26 11:18:25;;;;;;;;;;;18.60;99.90;;;;;;5074004;28;19904;-75
2022/06/26 11:20:53;;;;;;;;;;;18.30;99.90;;;;;;5073415;28;20388;-75
2022/06/26 11:23:26;;;;;;;;;;;18.10;99.90;;;;;;5073947;28;19904;-75
2022/06/26 11:25:57;;;;;;;;;;;18.00;99.90;;;;;;5073337;28;19904;-75
2022/06/26 11:28:29;;;;;;;;;;;17.90;99.90;;;;;;5073738;28;19908;-75
2022/06/26 11:30:54;;;;;;;;;;;17.80;99.90;;;;;;5073133;28;20286;-75
2022/06/26 11:33:24;;;;;;;;;;;18.00;99.90;;;;;;5073284;28;19923;-74
2022/06/26 11:35:50;;;;;;;;;;;18.10;99.90;;;;;;5072826;28;20384;-75
2022/06/26 11:38:16;;;;;;;;;;;18.40;99.90;;;;;;5073460;28;19987;-75
2022/06/26 11:40:42;;;;;;;;;;;18.50;99.90;;;;;;5073480;28;20312;-75
2022/06/26 11:43:09;;;;;;;;;;;18.50;99.90;;;;;;5072756;28;19912;-74
2022/06/26 11:45:35;;;;;;;;;;;18.60;99.90;;;;;;5073471;28;19961;-75
2022/06/26 11:48:04;;;;;;;;;;;18.80;99.90;;;;;;5072675;28;20017;-74
2022/06/26 11:50:34;;;;;;;;;;;18.80;99.90;;;;;;5073333;28;19951;-75
2022/06/26 11:53:00;;;;;;;;;;;18.90;99.90;;;;;;5072770;28;19904;-75
2022/06/26 11:55:26;;;;;;;;;;;19.00;99.90;;;;;;5073064;28;19911;-74
2022/06/26 11:57:55;;;;;;;;;;;19.20;99.90;;;;;;5072779;28;19908;-75
2022/06/26 12:00:22;;;;;;;;;;;19.40;99.90;;;;;;5073125;28;20403;-75
2022/06/26 12:02:51;;;;;;;;;;;19.40;99.90;;;;;;5073281;28;19935;-74
2022/06/26 12:05:20;;;;;;;;;;;19.30;99.90;;;;;;5072874;28;19919;-75
2022/06/26 12:07:47;;;;;;;;;;;19.00;99.90;;;;;;5073066;28;19904;-75
2022/06/26 12:10:23;;;;;;;;;;;18.70;99.90;;;;;;5072446;28;19904;-75
2022/06/26 12:12:50;;;;;;;;;;;18.60;99.90;;;;;;5073021;28;20351;-76
2022/06/26 12:15:15;;;;;;;;;;;18.40;99.90;;;;;;5072329;28;19904;-75
2022/06/26 12:17:42;;;;;;;;;;;18.40;99.90;;;;;;5072940;28;19905;-75
2022/06/26 12:20:08;;;;;;;;;;;18.40;99.90;;;;;;5054362;28;19911;-74
2022/06/26 12:22:34;;;;;;;;;;;18.50;99.90;;;;;;5072759;28;19904;-75
2022/06/26 12:25:00;;;;;;;;;;;18.60;99.90;;;;;;5071995;28;19954;-75
2022/06/26 12:27:34;;;;;;;;;;;18.60;99.90;;;;;;5072886;28;20274;-75
2022/06/26 12:30:00;;;;;;;;;;;18.80;99.90;;;;;;5072071;28;19915;-75
2022/06/26 12:32:26;;;;;;;;;;;18.90;99.90;;;;;;5072852;28;19904;-75
2022/06/26 12:34:51;;;;;;;;;;;19.10;99.90;;;;;;5072370;28;20358;-75
2022/06/26 12:37:17;;;;;;;;;;;19.10;99.90;;;;;;5072554;28;19904;-75
2022/06/26 12:39:42;;;;;;;;;;;19.20;99.90;;;;;;5072349;28;19946;-75
2022/06/26 12:42:08;;;;;;;;;;;19.20;99.90;;;;;;5072121;28;19908;-76
2022/06/26 12:44:34;;;;;;;;;;;19.10;99.90;;;;;;5072582;28;19912;-75
2022/06/26 12:46:59;;;;;;;;;;;19.10;99.90;;;;;;5070928;28;19905;-75
2022/06/26 12:49:25;;;;;;;;;;;19.00;99.90;;;;;;5072507;28;19950;-75
2022/06/26 12:51:52;;;;;;;;;;;19.00;99.90;;;;;;5072228;28;19912;-75
2022/06/26 12:54:18;;;;;;;;;;;19.20;99.90;;;;;;5071863;28;19911;-75
2022/06/26 12:56:43;;;;;;;;;;;19.20;99.90;;;;;;5072500;28;19920;-75
2022/06/26 12:59:09;;;;;;;;;;;19.20;99.90;;;;;;5072133;28;20338;-75
2022/06/26 13:01:35;;;;;;;;;;;19.30;99.90;;;;;;5072536;28;19991;-75
2022/06/26 13:04:00;;;;;;;;;;;19.40;99.90;;;;;;5053656;28;20014;-75
2022/06/26 13:06:26;;;;;;;;;;;19.40;99.90;;;;;;5072139;28;19905;-75
2022/06/26 13:08:52;;;;;;;;;;;19.40;99.90;;;;;;5054313;28;20263;-75
2022/06/26 13:11:23;;;;;;;;;;;19.50;99.90;;;;;;5071773;28;19905;-75
2022/06/26 13:13:49;;;;;;;;;;;19.50;99.90;;;;;;5072214;28;19908;-75
2022/06/26 13:16:15;;;;;;;;;;;19.60;99.90;;;;;;5071672;28;20458;-75
2022/06/26 13:18:40;;;;;;;;;;;19.70;99.90;;;;;;5072054;28;19931;-75
2022/06/26 13:21:08;;;;;;;;;;;19.70;99.90;;;;;;5071624;28;19904;-75
2022/06/26 13:23:33;;;;;;;;;;;19.80;99.90;;;;;;5072139;28;20305;-75
2022/06/26 13:25:59;;;;;;;;;;;19.80;99.90;;;;;;5071630;28;19904;-74
2022/06/26 13:28:24;;;;;;;;;;;19.90;99.90;;;;;;5072085;28;19904;-75
2022/06/26 13:30:50;;;;;;;;;;;19.90;99.90;;;;;;5072270;28;19908;-74
2022/06/26 13:33:16;;;;;;;;;;;19.90;99.90;;;;;;5071342;28;19926;-74
2022/06/26 13:35:42;;;;;;;;;;;19.80;99.90;;;;;;5072166;28;19950;-74
2022/06/26 13:38:08;;;;;;;;;;;19.80;99.90;;;;;;5071272;28;19991;-74
2022/06/26 13:40:33;;;;;;;;;;;19.80;99.90;;;;;;5071686;28;19952;-74
2022/06/26 13:42:59;;;;;;;;;;;19.80;99.90;;;;;;5071301;28;19911;-74
2022/06/26 13:45:24;;;;;;;;;;;19.80;99.90;;;;;;5072120;28;19986;-74
2022/06/26 13:47:50;;;;;;;;;;;19.80;99.90;;;;;;5071870;28;19908;-74
2022/06/26 13:50:17;;;;;;;;;;;20.00;99.90;;;;;;5071450;28;19911;-74
2022/06/26 13:52:43;;;;;;;;;;;20.20;99.90;;;;;;5071942;28;19904;-74
2022/06/26 13:55:09;;;;;;;;;;;20.30;99.90;;;;;;5070918;28;19905;-74
2022/06/26 13:57:35;;;;;;;;;;;20.40;99.90;;;;;;5072029;28;20007;-74
2022/06/26 14:00:01;;;;;;;;;;;20.40;99.90;;;;;;5073755;28;20346;-74
2022/06/26 14:02:27;;;;;;;;;;;20.30;99.90;;;;;;5075331;28;19905;-74
2022/06/26 14:04:53;;;;;;;;;;;20.10;99.90;;;;;;5075295;28;19999;-74
2022/06/26 14:07:18;;;;;;;;;;;19.80;99.90;;;;;;5074794;28;19900;-74
2022/06/26 14:09:44;;;;;;;;;;;19.80;99.90;;;;;;5075550;28;19927;-74
2022/06/26 14:12:10;;;;;;;;;;;19.80;99.90;;;;;;5056755;28;19915;-74
2022/06/26 14:14:35;;;;;;;;;;;19.90;99.90;;;;;;5056950;28;19904;-74
2022/06/26 14:17:01;;;;;;;;;;;20.10;99.90;;;;;;5075086;28;20363;-74
2022/06/26 14:19:26;;;;;;;;;;;20.10;99.90;;;;;;5074704;28;19904;-74